Time;durP1;ratioP1;P1;durP2;ratioP2;P2;SDS_P1;SDS_P2;PMS_P1;PMS_P2;Temp;Humidity;BMP_temperature;BMP_pressure;BME280_temperature;BME280_humidity;BME280_pressure;Samples;Min_cycle;Max_cycle;Signal;HPM_P1;HPM_P2
2022/07/04 00:01:14;;;;;;;2.00;1.30;;;17.40;71.30;;;;;;4230808;28;20613;-70
2022/07/04 00:03:14;;;;;;;2.00;1.20;;;17.50;71.00;;;;;;4231552;28;20213;-70
2022/07/04 00:05:15;;;;;;;1.90;1.20;;;17.50;70.30;;;;;;4231403;28;20623;-69
2022/07/04 00:07:16;;;;;;;4.17;1.23;;;17.50;70.70;;;;;;4231488;28;20174;-69
2022/07/04 00:09:17;;;;;;;1.67;1.20;;;17.60;70.40;;;;;;4231392;28;20189;-68
2022/07/04 00:11:17;;;;;;;1.40;1.30;;;17.60;70.40;;;;;;4230864;28;20197;-71
2022/07/04 00:13:18;;;;;;;1.80;1.20;;;17.60;70.60;;;;;;4231286;28;20209;-70
2022/07/04 00:15:19;;;;;;;2.40;1.20;;;17.70;69.70;;;;;;4215973;28;20267;-70
2022/07/04 00:17:19;;;;;;;2.13;1.37;;;17.80;69.90;;;;;;4214369;28;20243;-70
2022/07/04 00:19:20;;;;;;;1.37;1.17;;;17.80;70.90;;;;;;4214283;28;20550;-69
2022/07/04 00:21:20;;;;;;;2.23;1.40;;;17.80;70.90;;;;;;4213548;28;20213;-70
2022/07/04 00:23:21;;;;;;;2.87;1.40;;;17.80;71.00;;;;;;4213374;28;20239;-69
2022/07/04 00:25:21;;;;;;;1.73;1.20;;;17.90;72.20;;;;;;4213062;28;20237;-70
2022/07/04 00:27:22;;;;;;;2.60;1.30;;;17.90;70.60;;;;;;4214343;28;20211;-70
2022/07/04 00:29:23;;;;;;;3.53;1.20;;;18.00;68.80;;;;;;4215550;28;20182;-70
2022/07/04 00:31:23;;;;;;;2.50;1.30;;;18.10;67.50;;;;;;4213895;28;20174;-70
2022/07/04 00:33:24;;;;;;;1.30;1.20;;;18.20;68.30;;;;;;4214141;28;20203;-70
2022/07/04 00:35:24;;;;;;;2.93;1.23;;;18.20;69.00;;;;;;4214310;28;20288;-70
2022/07/04 00:37:25;;;;;;;1.73;1.40;;;18.20;69.00;;;;;;4214300;28;20686;-69
2022/07/04 00:39:25;;;;;;;3.67;1.40;;;18.30;69.00;;;;;;4214097;28;20555;-72
2022/07/04 00:41:26;;;;;;;2.17;1.53;;;18.30;69.00;;;;;;4213530;28;20929;-70
2022/07/04 00:43:28;;;;;;;1.93;1.50;;;18.30;68.40;;;;;;4214344;28;20215;-71
2022/07/04 00:45:28;;;;;;;2.23;1.40;;;18.30;68.50;;;;;;4214262;28;20166;-70
2022/07/04 00:47:29;;;;;;;1.30;1.20;;;18.20;68.60;;;;;;4214109;28;20219;-70
2022/07/04 00:49:30;;;;;;;1.47;1.30;;;18.20;67.70;;;;;;4214036;28;20281;-71
2022/07/04 00:51:31;;;;;;;2.50;1.30;;;18.20;67.50;;;;;;4213455;28;20171;-71
2022/07/04 00:53:31;;;;;;;2.47;1.23;;;18.20;67.70;;;;;;4213966;28;20207;-71
2022/07/04 00:55:33;;;;;;;1.83;1.40;;;18.20;68.60;;;;;;4214281;28;20533;-70
2022/07/04 00:57:34;;;;;;;1.63;1.23;;;18.20;69.30;;;;;;4214188;28;20182;-71
2022/07/04 00:59:34;;;;;;;2.27;1.40;;;18.30;68.10;;;;;;4214002;28;20172;-71
2022/07/04 01:01:41;;;;;;;3.37;1.60;;;18.30;67.30;;;;;;4213440;28;20281;-68
2022/07/04 01:03:42;;;;;;;1.30;1.20;;;18.40;66.70;;;;;;4214161;28;20215;-71
2022/07/04 01:05:44;;;;;;;2.47;1.40;;;18.40;66.60;;;;;;4213682;28;20178;-70
2022/07/04 01:07:46;;;;;;;4.30;1.40;;;18.40;66.40;;;;;;4213590;28;20674;-71
2022/07/04 01:09:47;;;;;;;2.00;1.40;;;18.30;67.50;;;;;;4213622;28;20265;-70
2022/07/04 01:11:50;;;;;;;2.93;1.80;;;18.30;67.20;;;;;;4213167;28;20199;-70
2022/07/04 01:13:53;;;;;;;1.63;1.47;;;18.50;66.30;;;;;;4213521;28;20203;-70
2022/07/04 01:15:53;;;;;;;1.90;1.40;;;18.40;66.70;;;;;;4213630;28;20258;-71
2022/07/04 01:17:54;;;;;;;2.47;1.60;;;18.50;66.20;;;;;;4213526;28;20179;-71
2022/07/04 01:19:54;;;;;;;2.97;1.23;;;18.40;65.80;;;;;;4213675;28;20186;-70
2022/07/04 01:21:55;;;;;;;2.17;1.80;;;18.40;66.70;;;;;;4212851;28;20195;-70
2022/07/04 01:23:55;;;;;;;2.00;1.20;;;18.30;66.90;;;;;;4213537;28;20214;-70
2022/07/04 01:25:57;;;;;;;3.37;1.40;;;18.40;66.70;;;;;;4213514;28;20665;-70
2022/07/04 01:27:59;;;;;;;3.63;1.77;;;18.40;66.60;;;;;;4213532;28;20179;-70
2022/07/04 01:30:00;;;;;;;2.63;1.47;;;18.40;66.60;;;;;;4213721;28;20175;-70
2022/07/04 01:32:05;;;;;;;2.40;1.43;;;18.40;66.60;;;;;;4212644;28;20175;-73
2022/07/04 01:34:06;;;;;;;1.77;1.37;;;18.40;67.00;;;;;;4213108;28;20217;-70
2022/07/04 01:36:06;;;;;;;3.00;1.10;;;18.50;66.90;;;;;;4213213;28;20560;-70
2022/07/04 01:38:07;;;;;;;1.87;1.20;;;18.50;66.80;;;;;;4213369;28;20179;-70
2022/07/04 01:40:08;;;;;;;1.50;1.40;;;18.50;67.30;;;;;;4213430;28;20175;-70
2022/07/04 01:42:09;;;;;;;2.07;1.50;;;18.50;66.20;;;;;;4212428;28;20221;-70
2022/07/04 01:44:10;;;;;;;1.77;1.30;;;18.60;65.60;;;;;;4213174;28;20203;-70
2022/07/04 01:46:10;;;;;;;2.33;1.30;;;18.60;65.30;;;;;;4212936;28;20920;-70
2022/07/04 01:48:12;;;;;;;1.47;1.37;;;18.50;65.40;;;;;;4212931;28;20175;-70
2022/07/04 01:50:13;;;;;;;1.53;1.37;;;18.50;65.30;;;;;;4212925;28;20179;-70
2022/07/04 01:52:15;;;;;;;1.63;1.47;;;18.60;65.10;;;;;;4212309;28;20649;-70
2022/07/04 01:54:16;;;;;;;2.30;1.40;;;18.60;65.60;;;;;;4211221;28;20202;-71
2022/07/04 01:56:17;;;;;;;3.20;1.60;;;18.50;67.00;;;;;;4212781;28;20215;-69
2022/07/04 01:58:17;;;;;;;3.53;1.50;;;18.40;68.10;;;;;;4212964;28;20233;-70
2022/07/04 02:02:37;;;;;;;2.03;1.40;;;18.40;68.40;;;;;;4212185;28;20202;-70
2022/07/04 02:04:38;;;;;;;2.10;1.30;;;18.30;69.70;;;;;;4212393;28;20210;-70
2022/07/04 02:06:38;;;;;;;1.83;1.33;;;18.20;70.30;;;;;;4212650;28;20685;-71
2022/07/04 02:10:58;;;;;;;4.57;1.80;;;18.20;69.30;;;;;;4211981;28;20769;-70
2022/07/04 02:13:03;;;;;;;1.97;1.57;;;18.10;69.10;;;;;;4212961;28;20195;-70
2022/07/04 02:15:04;;;;;;;2.37;1.30;;;18.10;69.20;;;;;;4212486;28;20178;-71
2022/07/04 02:17:04;;;;;;;2.10;1.30;;;18.10;70.20;;;;;;4201181;28;20203;-70
2022/07/04 02:19:05;;;;;;;2.13;1.23;;;18.20;69.00;;;;;;4195700;28;20669;-70
2022/07/04 02:21:05;;;;;;;3.17;1.37;;;18.20;70.80;;;;;;4195079;28;20195;-69
2022/07/04 02:23:06;;;;;;;3.17;1.60;;;18.20;70.20;;;;;;4194584;28;20212;-69
2022/07/04 02:25:07;;;;;;;3.93;1.40;;;18.00;72.20;;;;;;4196005;28;20171;-71
2022/07/04 02:27:08;;;;;;;2.03;1.10;;;18.00;71.70;;;;;;4195717;28;20662;-71
2022/07/04 02:29:08;;;;;;;1.83;1.40;;;18.00;71.50;;;;;;4195751;28;20183;-71
2022/07/04 02:31:09;;;;;;;1.57;1.27;;;17.90;72.70;;;;;;4195023;28;20207;-71
2022/07/04 02:33:10;;;;;;;1.57;1.30;;;17.80;72.30;;;;;;4192920;28;20199;-70
2022/07/04 02:35:11;;;;;;;1.77;1.30;;;17.60;74.40;;;;;;4196668;28;20182;-69
2022/07/04 02:37:12;;;;;;;1.90;1.30;;;17.60;73.90;;;;;;4212017;28;20683;-70
2022/07/04 02:39:13;;;;;;;2.63;1.40;;;17.60;75.10;;;;;;4212539;28;20210;-70
2022/07/04 02:41:13;;;;;;;2.80;1.23;;;17.50;75.90;;;;;;4211906;28;20166;-70
2022/07/04 02:43:14;;;;;;;2.43;1.50;;;17.50;74.40;;;;;;4212308;28;20215;-70
2022/07/04 02:45:14;;;;;;;2.10;1.40;;;17.50;73.70;;;;;;4212505;28;20183;-70
2022/07/04 02:47:15;;;;;;;1.50;1.40;;;17.50;73.90;;;;;;4211604;28;20653;-70
2022/07/04 02:49:16;;;;;;;2.97;1.57;;;17.60;74.10;;;;;;4210713;28;20879;-70
2022/07/04 02:51:16;;;;;;;1.93;1.63;;;17.50;75.10;;;;;;4211524;28;20205;-70
2022/07/04 02:53:17;;;;;;;2.20;1.50;;;17.50;75.90;;;;;;4212228;28;20203;-70
2022/07/04 02:55:17;;;;;;;1.40;1.30;;;17.50;75.50;;;;;;4212238;28;20174;-70
2022/07/04 02:57:18;;;;;;;2.97;1.60;;;17.50;76.80;;;;;;4210901;28;20181;-71
2022/07/04 02:59:19;;;;;;;1.70;1.60;;;17.60;75.30;;;;;;4212372;28;20225;-69
2022/07/04 03:01:19;;;;;;;3.30;1.40;;;17.60;73.50;;;;;;4211671;28;20171;-69
2022/07/04 03:03:20;;;;;;;3.80;1.50;;;17.60;74.10;;;;;;4212061;28;20226;-69
2022/07/04 03:05:20;;;;;;;3.53;1.60;;;17.70;73.00;;;;;;4212277;28;20171;-69
2022/07/04 03:07:21;;;;;;;3.77;1.40;;;17.60;74.70;;;;;;4212305;28;20258;-69
2022/07/04 03:09:22;;;;;;;1.83;1.40;;;17.60;75.40;;;;;;4212395;28;20171;-71
2022/07/04 03:11:22;;;;;;;2.40;1.93;;;17.70;75.30;;;;;;4211342;28;20206;-71
2022/07/04 03:13:24;;;;;;;1.43;1.20;;;17.60;75.30;;;;;;4212005;28;20210;-70
2022/07/04 03:15:25;;;;;;;7.57;1.70;;;17.60;75.90;;;;;;4211924;28;20203;-71
2022/07/04 03:17:26;;;;;;;1.27;1.17;;;17.60;76.00;;;;;;4210736;28;20697;-71
2022/07/04 03:19:26;;;;;;;1.90;1.30;;;17.50;76.40;;;;;;4212260;28;20195;-71
2022/07/04 03:21:27;;;;;;;2.23;1.43;;;17.50;77.00;;;;;;4211359;28;20190;-71
2022/07/04 03:23:27;;;;;;;2.97;1.47;;;17.50;77.30;;;;;;4212093;28;20221;-70
2022/07/04 03:25:28;;;;;;;2.37;1.50;;;17.40;77.40;;;;;;4212037;28;20207;-71
2022/07/04 03:27:28;;;;;;;2.03;1.47;;;17.50;77.60;;;;;;4212333;28;20194;-70
2022/07/04 03:29:29;;;;;;;1.97;1.33;;;17.50;78.00;;;;;;4212445;28;20178;-70
2022/07/04 03:31:30;;;;;;;2.43;1.60;;;17.50;77.30;;;;;;4211660;28;20180;-70
2022/07/04 03:33:30;;;;;;;1.60;1.50;;;17.50;77.40;;;;;;4212130;28;20203;-70
2022/07/04 03:35:31;;;;;;;2.23;1.70;;;17.40;77.10;;;;;;4211809;28;20193;-70
2022/07/04 03:37:31;;;;;;;1.80;1.50;;;17.40;77.80;;;;;;4212072;28;21132;-70
2022/07/04 03:39:32;;;;;;;1.97;1.57;;;17.30;77.90;;;;;;4211891;28;20175;-71
2022/07/04 03:41:32;;;;;;;2.47;1.30;;;17.20;78.00;;;;;;4211227;28;20175;-70
2022/07/04 03:43:33;;;;;;;2.30;1.60;;;17.20;78.30;;;;;;4211525;28;20335;-69
2022/07/04 03:45:34;;;;;;;2.50;1.50;;;17.20;77.70;;;;;;4211425;28;20186;-69
2022/07/04 03:47:35;;;;;;;1.90;1.60;;;17.20;79.00;;;;;;4211542;28;20175;-69
2022/07/04 03:49:35;;;;;;;5.00;1.50;;;17.10;81.40;;;;;;4212927;28;20194;-69
2022/07/04 03:51:36;;;;;;;2.47;1.60;;;17.10;82.60;;;;;;4214039;28;20688;-69
2022/07/04 03:53:36;;;;;;;4.33;1.70;;;17.10;82.80;;;;;;4214959;28;20206;-70
2022/07/04 03:55:37;;;;;;;3.70;1.60;;;17.10;83.30;;;;;;4214911;28;20232;-69
2022/07/04 03:57:38;;;;;;;1.73;1.47;;;17.10;83.50;;;;;;4214670;28;20358;-69
2022/07/04 03:59:38;;;;;;;3.17;1.87;;;17.10;83.50;;;;;;4216805;28;20178;-70
2022/07/04 04:01:39;;;;;;;2.10;1.60;;;17.10;83.00;;;;;;4215904;28;20187;-70
2022/07/04 04:05:58;;;;;;;2.13;1.97;;;17.20;81.50;;;;;;4217541;28;20232;-69
2022/07/04 04:08:00;;;;;;;2.03;1.30;;;17.20;82.70;;;;;;4205641;28;20191;-69
2022/07/04 04:10:01;;;;;;;2.97;1.43;;;17.20;80.90;;;;;;4200723;28;20256;-69
2022/07/04 04:12:01;;;;;;;2.50;1.70;;;17.20;81.00;;;;;;4199952;28;20195;-69
2022/07/04 04:14:02;;;;;;;2.00;1.40;;;17.20;80.20;;;;;;4204312;28;20187;-69
2022/07/04 04:16:03;;;;;;;2.30;1.40;;;17.10;80.50;;;;;;4217327;28;20183;-69
2022/07/04 04:18:04;;;;;;;3.00;1.70;;;17.20;81.30;;;;;;4217183;28;20179;-69
2022/07/04 04:20:05;;;;;;;2.43;1.67;;;17.20;81.00;;;;;;4217188;28;20182;-69
2022/07/04 04:22:06;;;;;;;1.60;1.40;;;17.20;82.30;;;;;;4215381;28;20309;-69
2022/07/04 04:24:07;;;;;;;2.70;1.60;;;17.20;83.10;;;;;;4216012;28;20288;-69
2022/07/04 04:26:08;;;;;;;1.80;1.70;;;17.30;82.20;;;;;;4215833;28;20815;-70
2022/07/04 04:28:08;;;;;;;3.27;1.77;;;17.30;82.30;;;;;;4217235;28;20174;-70
2022/07/04 04:30:10;;;;;;;2.93;1.50;;;17.30;82.20;;;;;;4217103;28;20258;-69
2022/07/04 04:32:10;;;;;;;1.70;1.60;;;17.30;82.50;;;;;;4216294;28;20178;-69
2022/07/04 04:34:11;;;;;;;2.73;1.90;;;17.30;83.00;;;;;;4217052;28;20183;-69
2022/07/04 04:36:11;;;;;;;2.33;1.70;;;17.40;82.70;;;;;;4217087;28;20179;-69
2022/07/04 04:38:12;;;;;;;3.37;1.70;;;17.60;81.80;;;;;;4217070;28;20184;-69
2022/07/04 04:40:13;;;;;;;1.60;1.50;;;17.70;81.30;;;;;;4216908;28;20206;-69
2022/07/04 04:42:13;;;;;;;2.90;1.37;;;17.70;79.10;;;;;;4216316;28;20175;-69
2022/07/04 04:44:14;;;;;;;2.27;1.47;;;17.70;77.80;;;;;;4216537;28;20207;-69
2022/07/04 04:46:14;;;;;;;2.87;1.90;;;17.60;79.70;;;;;;4214406;28;20193;-70
2022/07/04 04:48:15;;;;;;;1.90;1.60;;;17.60;81.30;;;;;;4213621;28;20178;-69
2022/07/04 04:50:16;;;;;;;5.43;1.47;;;17.50;81.10;;;;;;4208918;28;20263;-70
2022/07/04 04:52:16;;;;;;;2.77;1.47;;;17.50;80.70;;;;;;4201654;28;20214;-71
2022/07/04 04:54:17;;;;;;;1.70;1.60;;;17.70;79.50;;;;;;4212922;28;20688;-70
2022/07/04 04:56:17;;;;;;;2.13;1.80;;;17.70;78.70;;;;;;4213289;28;20726;-69
2022/07/04 04:58:21;;;;;;;3.00;1.90;;;17.60;78.30;;;;;;4213337;28;20211;-71
2022/07/04 05:00:22;;;;;;;3.07;1.60;;;17.60;78.80;;;;;;4213296;28;20759;-70
2022/07/04 05:02:23;;;;;;;4.10;1.77;;;17.60;77.80;;;;;;4212796;28;20203;-70
2022/07/04 05:04:24;;;;;;;1.53;1.43;;;17.70;77.60;;;;;;4213311;28;20235;-70
2022/07/04 05:06:24;;;;;;;2.77;1.53;;;17.80;76.00;;;;;;4213324;28;20171;-70
2022/07/04 05:08:25;;;;;;;2.27;1.60;;;17.80;76.50;;;;;;4213254;28;20185;-70
2022/07/04 05:10:26;;;;;;;2.23;1.80;;;17.90;77.10;;;;;;4212812;28;20171;-71
2022/07/04 05:12:27;;;;;;;1.87;1.50;;;18.00;75.50;;;;;;4211059;28;20613;-70
2022/07/04 05:14:28;;;;;;;3.70;1.60;;;18.10;78.60;;;;;;4213261;28;20696;-70
2022/07/04 05:16:29;;;;;;;1.80;1.67;;;18.00;79.10;;;;;;4213290;28;20178;-70
2022/07/04 05:18:29;;;;;;;1.97;1.77;;;17.80;77.30;;;;;;4213120;28;20179;-70
2022/07/04 05:20:30;;;;;;;3.57;1.50;;;17.80;77.80;;;;;;4213021;28;20190;-70
2022/07/04 05:22:30;;;;;;;2.63;2.00;;;17.50;78.30;;;;;;4212552;28;20207;-69
2022/07/04 05:24:31;;;;;;;5.70;2.53;;;17.30;82.50;;;;;;4213042;28;20207;-70
2022/07/04 05:26:31;;;;;;;2.23;1.90;;;17.30;84.00;;;;;;4213067;28;20258;-70
2022/07/04 05:28:32;;;;;;;2.30;2.10;;;17.30;83.00;;;;;;4212917;28;20175;-71
2022/07/04 05:30:33;;;;;;;2.23;1.60;;;17.50;82.10;;;;;;4212914;28;20543;-70
2022/07/04 05:32:33;;;;;;;1.90;1.70;;;17.60;80.80;;;;;;4212194;28;20214;-71
2022/07/04 05:34:34;;;;;;;2.63;1.70;;;17.60;81.20;;;;;;4212818;28;20250;-70
2022/07/04 05:36:35;;;;;;;3.43;1.70;;;17.60;82.40;;;;;;4212922;28;20171;-69
2022/07/04 05:38:35;;;;;;;7.53;1.87;;;17.80;80.40;;;;;;4212800;28;20171;-70
2022/07/04 05:40:36;;;;;;;1.73;1.63;;;17.90;82.60;;;;;;4212897;28;20183;-71
2022/07/04 05:42:36;;;;;;;4.03;1.57;;;18.10;83.10;;;;;;4212167;28;20242;-71
2022/07/04 05:44:37;;;;;;;3.90;1.80;;;18.20;82.50;;;;;;4212792;28;20209;-71
2022/07/04 05:46:37;;;;;;;3.87;1.80;;;18.30;82.60;;;;;;4212882;28;20201;-71
2022/07/04 05:48:38;;;;;;;3.57;1.57;;;18.40;82.00;;;;;;4212934;28;20182;-71
2022/07/04 05:50:39;;;;;;;3.30;1.70;;;18.40;81.10;;;;;;4212480;28;20168;-70
2022/07/04 05:52:39;;;;;;;2.53;1.77;;;18.60;75.60;;;;;;4212241;28;20198;-71
2022/07/04 05:54:40;;;;;;;2.27;1.60;;;18.60;73.00;;;;;;4212530;28;20191;-70
2022/07/04 05:56:42;;;;;;;2.73;1.90;;;18.60;73.70;;;;;;4212362;28;20204;-70
2022/07/04 05:58:42;;;;;;;2.30;2.10;;;18.70;72.50;;;;;;4212410;28;20669;-71
2022/07/04 06:00:43;;;;;;;2.83;1.90;;;18.90;72.90;;;;;;4211854;28;20182;-70
2022/07/04 06:02:43;;;;;;;3.00;1.80;;;18.80;70.90;;;;;;4212360;28;20590;-70
2022/07/04 06:04:44;;;;;;;3.73;1.70;;;18.90;72.30;;;;;;4212530;28;20681;-71
2022/07/04 06:06:45;;;;;;;2.20;2.00;;;19.00;72.60;;;;;;4212465;28;20181;-71
2022/07/04 06:08:45;;;;;;;2.20;1.80;;;18.90;73.50;;;;;;4212358;28;20205;-70
2022/07/04 06:10:46;;;;;;;2.80;2.23;;;18.90;77.30;;;;;;4197561;28;20262;-70
2022/07/04 06:12:47;;;;;;;5.93;2.27;;;19.00;74.50;;;;;;4195597;28;20196;-70
2022/07/04 06:14:48;;;;;;;3.47;1.97;;;19.30;71.60;;;;;;4195427;28;20262;-71
2022/07/04 06:16:48;;;;;;;3.07;1.87;;;19.10;72.80;;;;;;4207569;28;20183;-70
2022/07/04 06:18:49;;;;;;;1.80;1.70;;;19.10;73.40;;;;;;4212433;28;20547;-71
2022/07/04 06:20:50;;;;;;;1.90;1.70;;;19.00;75.70;;;;;;4211026;28;20191;-71
2022/07/04 06:22:50;;;;;;;1.80;1.70;;;19.10;75.50;;;;;;4212088;28;20218;-70
2022/07/04 06:24:51;;;;;;;2.07;1.70;;;19.30;74.90;;;;;;4212379;28;20551;-71
2022/07/04 06:26:52;;;;;;;1.70;1.60;;;19.50;73.40;;;;;;4212179;28;20265;-70
2022/07/04 06:28:52;;;;;;;3.00;2.20;;;19.80;70.50;;;;;;4212135;28;20228;-71
2022/07/04 06:30:53;;;;;;;2.63;1.90;;;20.10;68.70;;;;;;4211757;28;20258;-71
2022/07/04 06:32:56;;;;;;;2.77;1.90;;;20.10;67.00;;;;;;4212137;28;20191;-71
2022/07/04 06:37:17;;;;;;;4.50;2.40;;;20.20;68.60;;;;;;4212245;28;20260;-70
2022/07/04 06:39:18;;;;;;;3.17;2.00;;;19.90;68.90;;;;;;4212134;28;20258;-70
2022/07/04 06:41:18;;;;;;;4.30;2.17;;;19.60;71.30;;;;;;4209480;28;20195;-70
2022/07/04 06:43:19;;;;;;;2.87;2.23;;;19.80;71.30;;;;;;4208052;28;20259;-71
2022/07/04 06:45:20;;;;;;;2.93;1.80;;;19.90;68.30;;;;;;4211990;28;20534;-71
2022/07/04 06:47:20;;;;;;;3.80;2.20;;;19.40;70.10;;;;;;4212057;28;20175;-70
2022/07/04 06:49:21;;;;;;;2.63;1.87;;;19.40;71.40;;;;;;4211853;28;20175;-70
2022/07/04 06:51:22;;;;;;;1.90;1.70;;;19.30;72.00;;;;;;4211325;28;20182;-70
2022/07/04 06:53:22;;;;;;;5.50;1.97;;;19.90;69.10;;;;;;4211285;28;20274;-71
2022/07/04 06:55:23;;;;;;;4.43;2.30;;;20.40;66.50;;;;;;4211821;28;20643;-70
2022/07/04 06:57:24;;;;;;;2.00;1.90;;;20.30;66.40;;;;;;4211851;28;20265;-71
2022/07/04 06:59:24;;;;;;;2.10;1.77;;;20.20;67.60;;;;;;4211640;28;20182;-71
2022/07/04 07:01:25;;;;;;;2.70;1.80;;;20.00;69.60;;;;;;4211080;28;20267;-70
2022/07/04 07:03:27;;;;;;;2.17;1.97;;;20.20;68.70;;;;;;4211789;28;20636;-71
2022/07/04 07:05:28;;;;;;;5.53;1.93;;;20.10;70.00;;;;;;4211693;28;20262;-71
2022/07/04 07:07:30;;;;;;;3.57;2.00;;;20.60;66.90;;;;;;4211905;28;20240;-71
2022/07/04 07:09:30;;;;;;;2.67;2.40;;;20.30;69.00;;;;;;4211586;28;20693;-70
2022/07/04 07:11:31;;;;;;;2.63;1.93;;;20.10;69.80;;;;;;4211206;28;20187;-70
2022/07/04 07:13:31;;;;;;;6.00;2.00;;;20.20;70.90;;;;;;4211671;28;20202;-69
2022/07/04 07:15:35;;;;;;;2.63;2.17;;;20.50;70.90;;;;;;4211642;28;20183;-70
2022/07/04 07:17:35;;;;;;;4.53;3.63;;;21.00;66.40;;;;;;4211702;28;20205;-69
2022/07/04 07:19:36;;;;;;;3.30;2.43;;;21.30;66.60;;;;;;4211542;28;20557;-70
2022/07/04 07:21:36;;;;;;;4.53;2.13;;;21.30;65.60;;;;;;4210734;28;20199;-70
2022/07/04 07:23:41;;;;;;;4.13;2.20;;;20.70;69.10;;;;;;4211481;28;20631;-70
2022/07/04 07:25:41;;;;;;;2.57;2.37;;;20.30;71.10;;;;;;4211483;28;20205;-70
2022/07/04 07:27:42;;;;;;;2.50;2.10;;;20.20;70.90;;;;;;4211613;28;20171;-71
2022/07/04 07:29:42;;;;;;;5.10;2.63;;;20.10;71.80;;;;;;4211495;28;20652;-69
2022/07/04 07:31:43;;;;;;;3.33;2.10;;;20.00;71.40;;;;;;4210338;28;20181;-69
2022/07/04 07:33:43;;;;;;;3.00;2.23;;;20.10;71.70;;;;;;4213698;28;20199;-69
2022/07/04 07:35:44;;;;;;;2.60;2.00;;;20.30;69.70;;;;;;4214049;28;20709;-70
2022/07/04 07:37:44;;;;;;;3.77;2.40;;;20.30;69.10;;;;;;4214162;28;20186;-69
2022/07/04 07:39:45;;;;;;;2.60;2.07;;;20.50;69.30;;;;;;4213988;28;20721;-69
2022/07/04 07:41:46;;;;;;;7.60;2.57;;;20.60;69.50;;;;;;4213307;28;20189;-69
2022/07/04 07:43:46;;;;;;;2.33;2.10;;;20.50;68.90;;;;;;4212704;28;20242;-69
2022/07/04 07:45:47;;;;;;;3.50;2.33;;;20.30;67.70;;;;;;4213885;28;20224;-70
2022/07/04 07:47:47;;;;;;;2.53;2.33;;;20.50;69.00;;;;;;4212579;28;20645;-69
2022/07/04 07:49:48;;;;;;;3.33;2.00;;;20.70;66.30;;;;;;4213814;28;20182;-69
2022/07/04 07:51:49;;;;;;;2.57;2.30;;;20.50;66.40;;;;;;4213303;28;20164;-69
2022/07/04 07:53:49;;;;;;;2.67;2.17;;;20.50;66.60;;;;;;4213730;28;20224;-69
2022/07/04 07:55:50;;;;;;;3.33;1.97;;;20.90;66.60;;;;;;4213906;28;20175;-69
2022/07/04 07:57:51;;;;;;;4.33;1.80;;;21.60;63.80;;;;;;4214119;28;20182;-69
2022/07/04 07:59:52;;;;;;;2.33;1.73;;;22.10;61.10;;;;;;4213897;28;20224;-69
2022/07/04 08:01:53;;;;;;;4.27;2.17;;;22.20;61.00;;;;;;4211628;28;20191;-70
2022/07/04 08:06:13;;;;;;;2.43;2.13;;;23.00;58.10;;;;;;4213958;28;20309;-69
2022/07/04 08:08:13;;;;;;;2.30;2.10;;;23.10;56.60;;;;;;4211500;28;20244;-70
2022/07/04 08:10:14;;;;;;;3.67;3.37;;;22.90;57.40;;;;;;4198259;28;20172;-69
2022/07/04 08:12:14;;;;;;;5.90;5.50;;;22.70;58.20;;;;;;4196047;28;20196;-69
2022/07/04 08:14:15;;;;;;;3.20;2.37;;;22.90;56.90;;;;;;4196782;28;20180;-69
2022/07/04 08:16:15;;;;;;;4.10;1.83;;;22.80;56.80;;;;;;4196790;28;20176;-69
2022/07/04 08:18:17;;;;;;;4.37;4.17;;;22.60;56.70;;;;;;4196722;28;20184;-69
2022/07/04 08:20:18;;;;;;;4.27;2.60;;;22.70;57.30;;;;;;4196536;28;20171;-69
2022/07/04 08:22:18;;;;;;;5.07;3.30;;;22.80;56.90;;;;;;4194654;28;20187;-69
2022/07/04 08:24:19;;;;;;;2.60;2.17;;;22.30;57.70;;;;;;4196849;28;20211;-69
2022/07/04 08:26:20;;;;;;;1.90;1.80;;;22.10;58.00;;;;;;4196694;28;20229;-69
2022/07/04 08:28:20;;;;;;;1.90;1.80;;;21.90;58.70;;;;;;4196628;28;20258;-69
2022/07/04 08:30:21;;;;;;;2.73;1.90;;;21.90;61.30;;;;;;4196465;28;20218;-69
2022/07/04 08:32:21;;;;;;;21.67;20.53;;;21.80;59.90;;;;;;4196014;28;20167;-70
2022/07/04 08:34:22;;;;;;;7.20;6.70;;;21.70;59.50;;;;;;4196801;28;20187;-69
2022/07/04 08:36:22;;;;;;;7.83;4.80;;;21.30;60.30;;;;;;4196376;28;20175;-69
2022/07/04 08:38:23;;;;;;;21.77;20.57;;;21.30;61.70;;;;;;4196332;28;20203;-69
2022/07/04 08:40:26;;;;;;;2.97;2.77;;;21.40;59.70;;;;;;4196320;28;20252;-69
2022/07/04 08:42:29;;;;;;;7.17;6.60;;;21.40;59.70;;;;;;4195734;28;20199;-69
2022/07/04 08:44:32;;;;;;;2.33;1.97;;;21.30;59.40;;;;;;4195470;28;20678;-69
2022/07/04 08:46:35;;;;;;;4.30;3.90;;;21.30;60.00;;;;;;4196325;28;20233;-69
2022/07/04 08:48:41;;;;;;;2.43;2.23;;;21.40;59.60;;;;;;4196317;28;20209;-69
2022/07/04 08:50:51;;;;;;;2.53;2.33;;;21.50;59.80;;;;;;4195917;28;20602;-69
2022/07/04 08:53:11;;;;;;;3.47;2.77;;;21.50;60.00;;;;;;4196035;28;20222;-69
2022/07/04 08:59:59;;;;;;;2.03;1.70;;;22.00;58.80;;;;;;4179815;28;20264;-69
2022/07/04 09:02:01;;;;;;;3.73;2.17;;;22.20;56.60;;;;;;4195325;28;20180;-68
2022/07/04 09:04:02;;;;;;;3.40;2.83;;;22.10;58.90;;;;;;4195936;28;20212;-69
2022/07/04 09:06:04;;;;;;;2.83;1.80;;;22.10;57.00;;;;;;4196012;28;20647;-69
2022/07/04 09:08:04;;;;;;;19.27;17.93;;;22.20;58.30;;;;;;4195919;28;20168;-69
2022/07/04 09:10:06;;;;;;;2.50;2.07;;;22.30;57.20;;;;;;4195959;28;20179;-69
2022/07/04 09:12:11;;;;;;;3.30;1.50;;;22.20;56.00;;;;;;4195125;28;20179;-69
2022/07/04 09:14:11;;;;;;;8.07;7.50;;;22.30;56.30;;;;;;4194546;28;20183;-69
2022/07/04 09:16:12;;;;;;;2.20;2.10;;;22.40;56.20;;;;;;4195772;28;20174;-69
2022/07/04 09:18:27;;;;;;;7.57;6.97;;;22.70;57.10;;;;;;4195522;28;20180;-69
2022/07/04 09:20:30;;;;;;;4.57;3.17;;;22.90;55.20;;;;;;4197749;28;20168;-69
2022/07/04 09:22:30;;;;;;;2.00;1.80;;;23.10;54.00;;;;;;4197535;28;20191;-69
2022/07/04 09:24:45;;;;;;;1.97;1.80;;;23.30;54.40;;;;;;4197372;28;20207;-69
2022/07/04 09:26:46;;;;;;;3.27;1.80;;;23.40;55.40;;;;;;4198798;28;20971;-69
2022/07/04 09:28:53;;;;;;;2.10;1.80;;;23.50;54.30;;;;;;4198682;28;20582;-69
2022/07/04 09:30:55;;;;;;;1.73;1.63;;;24.10;51.00;;;;;;4198307;28;20179;-69
2022/07/04 09:33:00;;;;;;;2.57;1.70;;;24.00;51.80;;;;;;4198882;28;20597;-70
2022/07/04 09:35:02;;;;;;;1.70;1.60;;;24.20;50.50;;;;;;4197715;28;20184;-69
2022/07/04 09:37:02;;;;;;;3.00;1.90;;;24.30;53.30;;;;;;4197606;28;20271;-69
2022/07/04 09:39:19;;;;;;;2.30;2.10;;;24.10;51.90;;;;;;4198822;28;20176;-69
2022/07/04 09:41:29;;;;;;;3.00;2.03;;;24.60;50.00;;;;;;4198019;28;20179;-69
2022/07/04 09:43:30;;;;;;;1.70;1.60;;;25.00;48.90;;;;;;4198745;28;20203;-70
2022/07/04 09:45:30;;;;;;;2.90;2.60;;;25.40;47.40;;;;;;4198832;28;20245;-69
2022/07/04 09:47:31;;;;;;;12.27;11.60;;;24.80;50.50;;;;;;4198719;28;20887;-69
2022/07/04 09:49:32;;;;;;;11.07;10.40;;;24.60;48.20;;;;;;4198479;28;20203;-69
2022/07/04 09:51:42;;;;;;;3.97;2.23;;;24.30;48.90;;;;;;4197961;28;20172;-69
2022/07/04 09:53:43;;;;;;;5.30;4.90;;;23.90;49.90;;;;;;4198442;28;20203;-70
2022/07/04 09:55:45;;;;;;;1.70;1.60;;;24.00;50.00;;;;;;4198288;28;20178;-70
2022/07/04 09:57:46;;;;;;;6.57;2.17;;;24.20;50.00;;;;;;4198263;28;20230;-69
2022/07/04 09:59:46;;;;;;;2.83;1.90;;;24.40;49.50;;;;;;4201192;28;20186;-69
2022/07/04 10:01:48;;;;;;;3.07;2.77;;;24.70;48.50;;;;;;4214288;28;20183;-69
2022/07/04 10:03:51;;;;;;;1.70;1.60;;;24.70;48.20;;;;;;4214840;28;20205;-69
2022/07/04 10:06:06;;;;;;;2.37;2.00;;;25.00;49.60;;;;;;4214933;28;20258;-69
2022/07/04 10:08:07;;;;;;;3.30;2.20;;;25.30;52.40;;;;;;4214846;28;20243;-69
2022/07/04 10:10:24;;;;;;;2.50;1.90;;;26.30;48.70;;;;;;4214894;28;20212;-69
2022/07/04 10:12:26;;;;;;;3.03;2.27;;;26.60;46.00;;;;;;4213595;28;20199;-70
2022/07/04 10:14:27;;;;;;;2.20;2.00;;;26.80;43.60;;;;;;4204169;28;20180;-69
2022/07/04 10:16:29;;;;;;;4.73;4.33;;;26.40;44.20;;;;;;4195031;28;20203;-69
2022/07/04 10:18:30;;;;;;;2.50;1.83;;;26.50;44.10;;;;;;4195227;28;20198;-69
2022/07/04 10:20:31;;;;;;;3.83;2.20;;;26.80;43.90;;;;;;4194772;28;20187;-70
2022/07/04 10:22:32;;;;;;;3.87;1.77;;;26.70;46.10;;;;;;4194297;28;20211;-69
2022/07/04 10:24:32;;;;;;;11.60;10.87;;;26.00;45.50;;;;;;4193642;28;20225;-69
2022/07/04 10:26:35;;;;;;;4.13;3.63;;;26.20;46.10;;;;;;4194709;28;20206;-69
2022/07/04 10:28:37;;;;;;;3.00;2.70;;;26.20;45.20;;;;;;4194890;28;20180;-69
2022/07/04 10:30:40;;;;;;;2.33;2.13;;;25.90;47.30;;;;;;4194997;28;20176;-69
2022/07/04 10:32:44;;;;;;;2.50;1.73;;;25.60;46.70;;;;;;4194668;28;20200;-70
2022/07/04 10:34:44;;;;;;;6.47;6.07;;;25.50;48.00;;;;;;4194779;28;20601;-69
2022/07/04 10:36:51;;;;;;;18.20;17.27;;;25.70;46.50;;;;;;4194761;28;20233;-69
2022/07/04 10:39:00;;;;;;;15.73;14.93;;;25.50;46.30;;;;;;4194665;28;20207;-69
2022/07/04 10:41:05;;;;;;;2.23;2.00;;;25.40;46.30;;;;;;4194126;28;20175;-69
2022/07/04 10:43:30;;;;;;;4.20;2.50;;;25.30;47.20;;;;;;4194467;28;20199;-70
2022/07/04 10:45:33;;;;;;;6.10;5.70;;;25.30;46.90;;;;;;4194769;28;20206;-69
2022/07/04 10:47:33;;;;;;;8.03;7.63;;;25.20;47.50;;;;;;4194744;28;20252;-69